South of the Border, South Carolina
Current Conditions -  °F | °C
As of 12:52 PM on Saturday 25 Oct 2014 (Local Time) from KMEB Reporting Station
Clear Clear  
Wind Chill: 69°   Ceiling: Unl
Heat Index: 69°   Visibility: 10mi
Dew Point: 41°   Wind: 3mph
Humidity: 36%   Direction: NA
Pressure: 30"   Gusts: NA
Location:  34.5115°N, 79.4035°W
Report Text: KMEB 251652Z AUTO VRB03KT 10SM CLR 21/05 A3000 RMK AO2 SLP157 T02060050 $
Loading
Personal Weather Stations






























Interactive Weather Map
Tropical Storm Tracking
New forecast layout! Learn more

10-Day Weather Forecast

Advertisements
Track Severe Weather on mobile